Norrie, Colorado
Current Conditions -  °F | °C
As of 12:53 AM on Thursday 29 Jan 2015 (Local Time) from KLXV Reporting Station
Overcast Overcast  
Wind Chill: 21°   Ceiling: 4000
Heat Index: 21°   Visibility: 10mi
Dew Point: 13°   Wind: 0mph
Humidity: 71%   Direction: NA
Pressure: 30.35"   Gusts: NA
Location:  39.3236°N, 106.55°W
Report Text: KLXV 290753Z AUTO 00000KT 10SM OVC040 M06/M11 A3035 RMK AO2 SLP239 T10611106
Loading
Personal Weather Stations






























Interactive Weather Map New forecast layout! Learn more

10-Day Weather Forecast

Advertisements
Track Severe Weather on mobile